Capitalizator.

Capitalize Yourself: Right Data. Real Growth.

Sector Analysis

Pharmaceutical Preparations

Standard Industrial Classification: SIC 2834

Industry Insider Sentiment Analysis

The Pharmaceutical Preparations sector (SIC 2834) acts as a critical barometer for broader economic health. Our real-time monitoring reveals total transactions. Monitoring "cluster buying" is one of the most reliable leading indicators for future sector performance. By analyzing aggregate data across this specific Standard Industrial Classification, investors can filter out individual company volatility and identify high-conviction trends. When multiple directors and officers within the same industry move capital simultaneously, it often signals an upcoming sector-wide revaluation or a fundamental shift in supply chain dynamics that has yet to be recognized by the broader public market.

Filing Date Trade Date Ticker Company Reporting Person Relationship Type Price Qty Total, $ Owned After
2025-06-05 01:04 2025-06-02 TBPH Theravance Biopharma, Inc. Farnum Rhonda Officer SELL $11.00 24,000 $264,000 336,918
2025-06-04 23:31 2025-06-03 ZTS Zoetis Inc. Lagano Roxanne Officer SELL $170.00 652 $110,840 15,129
2025-06-04 23:11 2025-06-02 MIRM Mirum Pharmaceuticals, Inc. Ramasastry Saira Director OPT+S $46.06 8,203 $377,843 0
2025-06-04 23:01 2025-06-04 MTVA MetaVia Inc. Woodworth Marshall H Officer BUY $0.70 14,200 $9,940 44,279
2025-06-05 03:00 2025-06-03 KALA KALA BIO, Inc. Kharabi Darius Officer SELL $3.74 730 $2,730 67,077
2025-06-05 03:00 2025-06-03 KALA KALA BIO, Inc. Reumuth Mary Officer SELL $3.74 2,850 $10,659 65,731
2025-06-05 03:00 2025-06-03 KALA KALA BIO, Inc. Bazemore Todd Officer SELL $3.74 3,390 $12,679 87,757
2025-06-05 03:00 2025-06-03 KALA KALA BIO, Inc. Iwicki Mark T Director SELL $3.74 10,866 $40,639 269,210
2025-06-04 22:23 2025-06-04 CLNN Clene Inc. General Resonance LLC 10% owner SELL $4.04 600 $2,424 707,992
2025-06-05 03:00 2025-06-03 KALA KALA BIO, Inc. Brazzell Romulus K Officer SELL $3.74 3,687 $13,789 87,949
2025-06-05 01:39 2025-06-02 AMPH Amphastar Pharmaceuticals Inc. Petersen Floyd F. Director SELL $25.67 500 $12,835 72,909
2025-06-04 23:22 2025-06-03 IMUX IMMUNIC, INC. Whaley Glenn Officer BUY $0.71 45,000 $32,076 95,510
2025-06-04 23:06 2025-06-03 IMUX IMMUNIC, INC. Rudick Richard Alan Director BUY $0.70 143,075 $100,024 230,375
2025-06-04 23:50 2025-06-02 JAZZ Jazz Pharmaceuticals plc COZADD BRUCE C Director, Officer SELL $108.95 1,000 $108,950 437,973
2025-06-05 00:38 2025-06-03 INSM INSMED Inc Smith Michael Alexander Officer SELL $71.50 1,448 $103,532 69,597
2025-06-05 00:37 2025-06-03 INSM INSMED Inc Flammer Martina M.D. Officer SELL $71.50 1,686 $120,549 83,111
2025-06-05 00:36 2025-06-03 INSM INSMED Inc Adsett Roger Officer SELL $71.50 1,860 $132,990 141,323
2025-06-05 00:36 2025-06-03 INSM INSMED Inc Bonstein Sara Officer SELL $71.50 1,579 $112,899 113,288
2025-06-04 23:42 2025-06-03 INSM INSMED Inc Schaeffer Orlov S Nicole Officer SELL $71.50 1,642 $117,403 118,579
2025-06-04 23:41 2025-06-03 INSM INSMED Inc MCGIRR DAVID W J Director SELL $72.25 6,250 $451,535 97,723
2025-06-04 23:40 2025-06-02 INSM INSMED Inc Lewis William Director, Officer OPT+S $71.39 12,302 $878,293 308,758
2025-06-05 03:41 2025-06-02 CORT CORCEPT THERAPEUTICS INC BELANOFF JOSEPH K Director, Officer SELL $82.86 40,000 $3,314,308 2,901,985
2025-06-05 03:34 2025-06-02 CORT CORCEPT THERAPEUTICS INC Lyon Joseph Douglas Officer OPT+S $78.04 5,000 $390,219 9,009
2025-06-05 03:33 2025-06-02 CORT CORCEPT THERAPEUTICS INC Maduck Sean Officer OPT+S $79.08 20,000 $1,581,686 17,705
2025-06-03 23:46 2025-06-02 ANTX AN2 Therapeutics, Inc. Easom Eric Director, Officer BUY $1.07 10,000 $10,665 256,380
2025-06-03 23:49 2025-06-02 LQDA Liquidia Corp Schundler Russell Officer OPT+S $16.74 923 $15,451 571,722
2025-06-03 23:47 2025-06-02 LQDA Liquidia Corp Moomaw Scott Officer OPT+S $16.74 581 $9,726 216,038
2025-06-03 23:44 2025-06-02 LQDA Liquidia Corp Adair Jason Officer OPT+S $16.74 451 $7,550 184,961
2025-06-03 23:45 2025-06-02 LQDA Liquidia Corp Kaseta Michael Officer OPT+S $16.74 859 $14,380 397,800
2025-06-03 23:15 2025-05-30 RYTM RHYTHM PHARMACEUTICALS, INC. Smith Hunter C Officer OPT+S $61.41 23,400 $1,437,010 109,929
2025-06-04 00:10 2025-05-30 CALC CalciMedica, Inc. Bardin Stephen Officer BUY $1.69 1,000 $1,690 41,000
2025-06-03 23:20 2025-06-02 OCUL OCULAR THERAPEUTIX, INC Waheed Nadia Officer SELL $8.05 13,861 $111,581 206,805
2025-06-04 00:00 2025-05-30 CPRX CATALYST PHARMACEUTICALS, INC. Daly Richard J Director, Officer SELL $24.86 70,000 $1,740,200 199,764
2025-06-04 04:21 2025-06-03 IMNM Immunome Inc. BIENAIME JEAN JACQUES Director BUY $9.38 5,000 $46,900 36,415
2025-06-03 23:10 2025-05-30 ALNY Alnylam Pharmaceuticals Inc. Greenstreet Yvonne Director, Officer OPT+S $305.00 50,937 $15,535,785 48,948
2025-06-03 23:02 2025-05-30 INSM INSMED Inc Smith Michael Alexander Officer SELL $69.65 26,327 $1,833,778 71,045
2025-06-03 23:30 2025-06-02 UTHR UNITED THERAPEUTICS Corp EDGEMOND JAMES Officer OPT+S $325.82 12,000 $3,909,893 8,118
2025-06-03 23:22 2025-06-03 CYTK CYTOKINETICS INC Malik Fady Ibraham Officer OPT+S $31.88 2,000 $63,760 140,610
2025-06-03 03:06 2025-05-15 LGND LIGAND PHARMACEUTICALS INC Reardon Andrew Officer SELL $104.00 1,000 $104,000 32,903
2025-06-02 14:53 2025-05-30 IOBT IO Biotech, Inc. Hunter Heidi Director BUY $1.39 15,000 $20,885 15,000
2025-06-03 01:00 2025-05-29 LGVN Longeveron Inc. Soffer Rock Director SELL $1.27 21,000 $26,750 209,034
2025-06-03 00:03 2025-05-30 PEPG PepGen Inc. STRECK PAUL Officer BUY $1.24 8,375 $10,393 27,805
2025-06-02 23:30 2025-05-30 CRBP Corbus Pharmaceuticals Holdings, Inc. Jenkins John Kenneth Director SELL $7.35 2,783 $20,465 33
2025-06-02 23:30 2025-05-30 CRBP Corbus Pharmaceuticals Holdings, Inc. Altmeyer Anne Director SELL $7.25 1,392 $10,096 1,391
2025-06-02 23:42 2025-05-30 SLS SELLAS Life Sciences Group, Inc. Wasman Jane Director BUY $1.69 20,000 $33,800 30,400
2025-06-02 21:39 2025-06-02 CLNN Clene Inc. General Resonance LLC 10% owner SELL $4.12 600 $2,473 708,592
2025-06-02 14:59 2025-05-29 SVRA Savara Inc McCracken Joseph S Director BUY $2.08 10,000 $20,825 260,837
2025-06-02 23:33 2025-06-02 CYTK CYTOKINETICS INC Blum Robert I Director, Officer SELL $31.22 5,000 $156,100 408,108
2025-05-30 23:31 2025-05-29 NUVL Nuvalent, Inc. Noci Darlene Officer OPT+S $71.31 4,000 $285,236 48,034
2025-05-30 23:20 2025-05-29 VREO Vireo Growth Inc. Chicago Atlantic Opportunity Portfolio, LP 10% owner BUY $0.38 44,500 $16,963 32,698,168
SHOW ENTRIES

Sector-Wide Insider Alpha

Analyzing insider movements across the Pharmaceutical Preparations sector provides a macro-view of executive conviction. When multiple leaders in different companies within the same SIC code (2834) simultaneously buy shares, it often indicates an industry-wide undervaluation or a positive shift in market cycles.

SEC Filings in Pharmaceutical Preparations

Every transaction in the Pharmaceutical Preparations industry is reported via Form 4 disclosures. By filtering these filings by industry, investors can detect institutional-scale sentiment shifts before they are reflected in broader market indices, following the capital flow of those with intimate industry knowledge.

UNDERSTANDING THE DATA

FILING DATE: The date and time when the transaction was reported to the SEC. This is when the public first receives the information.

TRADE DATE: The actual day the insider executed the purchase or sale in the market.

INDUSTRY: The specific market sector the company operates in. Useful for identifying broader institutional capital flows across sectors.

OWNED AFTER: The total number of shares held by the insider following the transaction. This highlights the insider's remaining conviction in the company.

CHANGE %: The percentage increase or decrease of the insider's total position. Large percentage changes often carry more weight than the dollar amount alone.

TRADE TYPES DEFINITIONS

BUY: An open market purchase. Typically indicates an insider's belief that the stock is undervalued or poised for growth.

SELL: An open market sale. While often used for diversification or liquidity, large or unexpected sales can be a warning signal.

OPT+S (OPTION EXERCISE & SALE): This occurs when an insider exercises their stock options and sells them immediately. Often part of a structured compensation plan.